Time;durP1;ratioP1;P1;durP2;ratioP2;P2;SDS_P1;SDS_P2;PMS_P1;PMS_P2;Temp;Humidity;BMP_temperature;BMP_pressure;BME280_temperature;BME280_humidity;BME280_pressure;Samples;Min_cycle;Max_cycle;Signal;HPM_P1;HPM_P2
2023/07/08 00:02:10;;;;;;;11.00;6.10;;;;;;;19.57;84.73;101405.72;5114878;28;20084;-73
2023/07/08 00:07:57;;;;;;;8.38;5.38;;;;;;;19.43;85.41;101392.59;5114121;28;20047;-74
2023/07/08 00:13:44;;;;;;;9.98;5.82;;;;;;;19.31;85.97;101394.66;5114510;28;20755;-74
2023/07/08 00:19:31;;;;;;;12.48;5.80;;;;;;;19.13;87.15;101385.03;5114422;28;20100;-74
2023/07/08 00:25:19;;;;;;;8.75;5.60;;;;;;;19.06;88.26;101380.84;5114654;28;20047;-73
2023/07/08 00:31:09;;;;;;;6.88;5.47;;;;;;;18.93;89.61;101390.25;5114375;28;20053;-74
2023/07/08 00:36:56;;;;;;;10.38;5.65;;;;;;;18.80;89.89;101377.13;5114664;28;20088;-73
2023/07/08 00:42:44;;;;;;;8.75;5.28;;;;;;;18.68;91.37;101369.13;5114392;28;20135;-75
2023/07/08 00:48:35;;;;;;;7.45;6.05;;;;;;;18.66;91.38;101373.97;5114821;28;20150;-74
2023/07/08 00:54:22;;;;;;;12.38;6.53;;;;;;;18.62;91.54;101370.13;5113062;28;20054;-73
2023/07/08 01:00:15;;;;;;;10.23;6.60;;;;;;;18.54;92.34;101357.03;5114121;28;20399;-73
2023/07/08 01:06:04;;;;;;;9.50;6.05;;;;;;;18.44;92.84;101354.19;5114091;28;20194;-73
2023/07/08 01:11:51;;;;;;;8.40;6.07;;;;;;;18.47;92.92;101372.63;5114036;28;20542;-74
2023/07/08 01:17:39;;;;;;;8.48;5.70;;;;;;;18.44;92.25;101365.00;5113955;28;20050;-73
2023/07/08 01:23:27;;;;;;;8.13;5.80;;;;;;;18.38;93.15;101364.16;5113754;28;20514;-74
2023/07/08 01:29:14;;;;;;;8.02;5.45;;;;;;;18.32;93.57;101358.94;5113825;28;20054;-74
2023/07/08 01:35:02;;;;;;;9.57;5.57;;;;;;;18.30;94.09;101363.78;5113293;28;20055;-73
2023/07/08 01:40:52;;;;;;;11.00;5.63;;;;;;;18.25;93.31;101359.13;5113544;28;20046;-73
2023/07/08 01:46:40;;;;;;;7.57;5.82;;;;;;;18.19;93.84;101352.81;5113556;28;20058;-73
2023/07/08 01:52:27;;;;;;;8.05;5.70;;;;;;;18.10;94.66;101353.50;5113540;28;20051;-74
2023/07/08 01:54:55;;;;;;;9.93;5.47;;;;;;;18.12;94.23;101349.47;5112513;28;20055;-74
2023/07/08 02:00:43;;;;;;;9.07;5.45;;;;;;;18.08;93.62;101334.81;5113388;28;20046;-74
2023/07/08 02:06:30;;;;;;;7.70;5.43;;;;;;;17.98;94.57;101321.16;5112499;28;20078;-74
2023/07/08 02:12:17;;;;;;;10.70;5.90;;;;;;;17.91;94.98;101324.03;5112788;28;20308;-73
2023/07/08 02:18:04;;;;;;;8.68;5.80;;;;;;;17.87;94.96;101316.66;5112692;28;20057;-73
2023/07/08 02:20:29;;;;;;;11.52;6.85;;;;;;;17.86;95.43;101320.44;5111752;28;20115;-73
2023/07/08 02:26:16;;;;;;;8.32;5.15;;;;;;;17.74;96.60;101311.63;5112835;28;20046;-74
2023/07/08 02:32:04;;;;;;;7.05;5.30;;;;;;;17.59;98.55;101310.31;5112107;28;20269;-74
2023/07/08 02:37:52;;;;;;;6.60;5.07;;;;;;;17.42;100.00;101296.03;5112433;28;20088;-73
2023/07/08 02:43:39;;;;;;;8.05;5.43;;;;;;;17.31;100.00;101295.03;5112597;28;20058;-73
2023/07/08 02:46:05;;;;;;;8.07;5.32;;;;;;;17.27;100.00;101293.06;5111533;28;20453;-73
2023/07/08 02:48:30;;;;;;;7.30;5.57;;;;;;;17.20;100.00;101297.84;5112196;28;20111;-73
2023/07/08 02:54:18;;;;;;;8.93;5.53;;;;;;;17.12;100.00;101300.97;5112364;28;20598;-73
2023/07/08 03:00:06;;;;;;;8.85;5.60;;;;;;;17.02;100.00;101317.81;5112438;28;20054;-74
2023/07/08 03:02:32;;;;;;;7.90;5.78;;;;;;;16.96;100.00;101310.69;5111985;28;20424;-73
2023/07/08 03:04:58;;;;;;;7.57;5.28;;;;;;;17.00;100.00;101312.66;5111248;28;20539;-74
2023/07/08 03:10:48;;;;;;;9.40;5.85;;;;;;;16.96;100.00;101314.22;5112112;28;20178;-73
2023/07/08 03:16:35;;;;;;;7.72;5.72;;;;;;;16.89;100.00;101312.75;5112253;28;20043;-73
2023/07/08 03:22:23;;;;;;;8.70;5.50;;;;;;;16.96;100.00;101297.19;5115798;28;20042;-73
2023/07/08 03:28:14;;;;;;;7.72;5.28;;;;;;;17.07;100.00;101309.00;5115757;28;20050;-73
2023/07/08 03:34:01;;;;;;;7.72;5.18;;;;;;;17.00;100.00;101309.94;5115482;28;20046;-73
2023/07/08 03:39:48;;;;;;;10.23;6.28;;;;;;;17.04;100.00;101308.41;5115128;28;20788;-73
2023/07/08 03:42:14;;;;;;;8.90;5.75;;;;;;;17.07;100.00;101311.69;5096742;28;20059;-74
2023/07/08 03:44:39;;;;;;;8.47;5.67;;;;;;;17.07;100.00;101314.41;5114085;28;20119;-73
2023/07/08 03:47:04;;;;;;;9.73;5.47;;;;;;;17.06;100.00;101320.84;5115008;28;20272;-73
2023/07/08 03:49:29;;;;;;;8.52;6.10;;;;;;;17.00;100.00;101317.25;5096092;28;20289;-73
2023/07/08 03:51:55;;;;;;;9.50;6.10;;;;;;;16.99;100.00;101329.94;5114671;28;20035;-73
2023/07/08 03:57:42;;;;;;;10.88;6.22;;;;;;;16.93;100.00;101327.41;5115053;28;20061;-73
2023/07/08 04:03:29;;;;;;;9.73;6.13;;;;;;;17.05;100.00;101330.81;5115080;28;20545;-73
2023/07/08 04:09:16;;;;;;;9.02;5.70;;;;;;;17.22;100.00;101334.38;5114662;28;20124;-74
2023/07/08 04:15:04;;;;;;;10.95;6.30;;;;;;;17.33;100.00;101335.34;5114636;28;20276;-73
2023/07/08 04:20:53;;;;;;;8.77;5.90;;;;;;;17.44;100.00;101334.44;5114802;28;20050;-74
2023/07/08 04:26:40;;;;;;;8.73;5.40;;;;;;;17.61;100.00;101337.09;5114849;28;20383;-74
2023/07/08 04:32:28;;;;;;;9.93;6.40;;;;;;;17.85;100.00;101340.47;5114370;28;20049;-74
2023/07/08 04:34:53;;;;;;;8.82;6.40;;;;;;;17.90;100.00;101330.50;5113394;28;20047;-73
2023/07/08 04:37:21;;;;;;;8.47;6.40;;;;;;;18.01;98.97;101336.09;5114171;28;20071;-74
2023/07/08 04:39:46;;;;;;;10.70;6.85;;;;;;;18.05;99.71;101338.03;5095701;28;20334;-74
2023/07/08 04:42:16;;;;;;;7.82;6.47;;;;;;;18.07;99.67;101326.94;5113247;28;20039;-73
2023/07/08 04:48:12;;;;;;;7.43;5.75;;;;;;;18.26;99.15;101329.09;5114415;28;20039;-75
2023/07/08 04:53:59;;;;;;;7.75;5.95;;;;;;;18.63;97.53;101339.25;5113790;28;20046;-73
2023/07/08 04:59:46;;;;;;;7.63;5.85;;;;;;;18.97;97.33;101333.63;5114245;28;20078;-73
2023/07/08 05:05:33;;;;;;;8.43;6.45;;;;;;;19.21;94.00;101331.38;5113760;28;20721;-75
2023/07/08 05:11:20;;;;;;;8.88;6.75;;;;;;;19.47;93.76;101328.59;5113833;28;20346;-74
2023/07/08 05:17:07;;;;;;;11.95;6.65;;;;;;;20.04;90.63;101337.91;5113895;28;20039;-74
2023/07/08 05:22:54;;;;;;;10.35;6.20;;;;;;;20.55;88.53;101338.94;5113664;28;20131;-73
2023/07/08 05:28:41;;;;;;;8.52;7.07;;;;;;;20.31;86.93;101335.84;5113811;28;20039;-75
2023/07/08 05:34:28;;;;;;;10.63;8.13;;;;;;;20.93;85.13;101334.09;5113851;28;20062;-75
2023/07/08 05:40:15;;;;;;;11.25;8.40;;;;;;;21.81;83.17;101333.75;5112980;28;20276;-75
2023/07/08 05:46:02;;;;;;;10.82;8.48;;;;;;;22.62;77.37;101324.41;5113508;28;20082;-75
2023/07/08 05:51:49;;;;;;;12.23;8.40;;;;;;;23.28;71.79;101332.91;5112439;28;20269;-75
2023/07/08 05:57:36;;;;;;;11.48;9.23;;;;;;;23.84;72.65;101331.56;5113370;28;20127;-75
2023/07/08 06:03:23;;;;;;;9.73;8.23;;;;;;;24.48;68.96;101330.19;5113318;28;20336;-75
2023/07/08 06:09:10;;;;;;;10.13;7.63;;;;;;;25.15;63.87;101345.31;5113093;28;20379;-74
2023/07/08 06:14:57;;;;;;;10.73;7.70;;;;;;;25.77;61.03;101334.13;5113623;28;20050;-79
2023/07/08 06:20:54;;;;;;;9.43;7.20;;;;;;;26.22;60.09;101344.13;5113022;28;20655;-77
2023/07/08 06:26:40;;;;;;;9.07;7.47;;;;;;;26.67;55.88;101351.69;5113129;28;20058;-79
2023/07/08 06:32:27;;;;;;;12.05;6.80;;;;;;;27.62;54.63;101355.94;5113079;28;20638;-78
2023/07/08 06:38:14;;;;;;;8.43;6.57;;;;;;;28.01;49.62;101348.78;5112622;28;20685;-79
2023/07/08 06:40:39;;;;;;;11.20;7.17;;;;;;;28.08;50.57;101347.22;5094278;28;20020;-79
2023/07/08 06:43:04;;;;;;;8.87;6.33;;;;;;;28.44;48.91;101351.69;5111780;28;20040;-80
2023/07/08 06:45:30;;;;;;;11.00;7.13;;;;;;;28.59;47.45;101345.69;5112473;28;20030;-78
2023/07/08 06:47:55;;;;;;;11.77;7.40;;;;;;;28.55;47.06;101358.47;5112685;28;20058;-78
2023/07/08 06:50:20;;;;;;;9.03;6.73;;;;;;;28.85;48.68;101347.66;5093686;28;20034;-79
2023/07/08 06:56:08;;;;;;;9.85;7.18;;;;;;;29.64;45.71;101338.91;5112300;28;20277;-79
2023/07/08 07:01:54;;;;;;;11.10;7.57;;;;;;;30.55;42.63;101350.41;5112116;28;20168;-79
2023/07/08 07:07:42;;;;;;;12.73;7.57;;;;;;;30.77;40.78;101347.34;5112682;28;20277;-79
2023/07/08 07:10:07;;;;;;;13.05;7.60;;;;;;;30.92;39.58;101349.47;5111516;28;20110;-78
2023/07/08 07:12:34;;;;;;;16.13;7.97;;;;;;;30.87;41.07;101346.13;5112326;28;20031;-77
2023/07/08 07:18:21;;;;;;;17.60;7.65;;;;;;;31.77;41.31;101348.09;5112221;28;20035;-78
2023/07/08 07:24:08;;;;;;;11.10;7.80;;;;;;;32.66;39.05;101346.94;5112156;28;20610;-78
2023/07/08 07:26:33;;;;;;;11.02;8.00;;;;;;;32.73;37.17;101351.91;5093609;28;20019;-78
2023/07/08 07:28:58;;;;;;;14.40;8.35;;;;;;;32.62;36.31;101339.69;5111097;28;20503;-79
2023/07/08 07:31:24;;;;;;;13.07;8.40;;;;;;;32.82;36.57;101349.00;5111884;28;20024;-78
2023/07/08 07:37:16;;;;;;;11.23;8.73;;;;;;;33.72;36.51;101353.81;5112634;28;20142;-79
2023/07/08 07:43:03;;;;;;;15.83;8.83;;;;;;;34.46;33.86;101351.22;5112208;28;20046;-80
2023/07/08 07:48:51;;;;;;;14.23;9.05;;;;;;;35.35;33.61;101361.34;5111811;28;20050;-78
2023/07/08 07:51:16;;;;;;;13.53;9.43;;;;;;;35.62;32.84;101351.91;5093275;28;20023;-79
2023/07/08 07:57:04;;;;;;;12.57;8.13;;;;;;;35.90;32.65;101351.56;5112091;28;20038;-80
2023/07/08 07:59:29;;;;;;;17.13;8.95;;;;;;;35.62;31.17;101348.31;5110836;28;20040;-80
2023/07/08 08:05:19;;;;;;;13.03;8.40;;;;;;;36.22;31.81;101351.25;5115318;28;20047;-79
2023/07/08 08:11:06;;;;;;;16.17;8.82;;;;;;;36.76;30.25;101344.41;5114982;28;20597;-75
2023/07/08 08:16:53;;;;;;;14.67;8.07;;;;;;;37.25;29.12;101360.91;5115154;28;20124;-76
2023/07/08 08:22:40;;;;;;;18.20;8.98;;;;;;;36.98;29.19;101370.53;5115171;28;20039;-76
2023/07/08 08:28:27;;;;;;;11.18;8.32;;;;;;;37.03;29.37;101373.81;5114896;28;20103;-77
2023/07/08 08:34:14;;;;;;;13.27;8.13;;;;;;;38.24;28.37;101377.72;5115068;28;20039;-76
2023/07/08 08:40:01;;;;;;;15.73;8.23;;;;;;;38.96;28.35;101379.63;5114417;28;20379;-78
2023/07/08 08:46:04;;;;;;;12.38;8.32;;;;;;;39.74;27.61;101383.78;5114602;28;20526;-78
2023/07/08 08:51:51;;;;;;;10.45;8.18;;;;;;;39.67;24.84;101390.19;5114307;28;20062;-78
2023/07/08 08:57:43;;;;;;;13.90;8.70;;;;;;;40.52;26.37;101384.47;5114506;28;20499;-76
2023/07/08 09:03:36;;;;;;;10.07;7.20;;;;;;;41.91;23.94;101396.84;5114304;28;20038;-75
2023/07/08 09:09:30;;;;;;;9.85;7.38;;;;;;;42.37;23.70;101397.19;5114205;28;19923;-76
2023/07/08 09:15:17;;;;;;;12.40;7.57;;;;;;;42.31;21.90;101393.25;5113064;28;20126;-77
2023/07/08 09:21:13;;;;;;;;;;;;;;;43.68;21.60;101395.84;5114576;28;20476;-76
2023/07/08 09:27:02;;;;;;;9.40;7.50;;;;;;;42.29;22.01;101381.63;5113828;28;20494;-75
2023/07/08 09:32:49;;;;;;;13.18;7.80;;;;;;;43.69;21.46;101377.69;5114083;28;20485;-78
2023/07/08 09:38:36;;;;;;;12.52;8.27;;;;;;;44.18;20.47;101390.88;5113594;28;20038;-78
2023/07/08 09:44:29;;;;;;;13.63;7.97;;;;;;;43.62;19.54;101383.41;5113604;28;20514;-78
2023/07/08 09:50:21;;;;;;;12.35;8.30;;;;;;;43.42;20.92;101374.91;5113720;28;20497;-79
2023/07/08 09:56:09;;;;;;;14.23;8.13;;;;;;;42.57;21.41;101362.84;5113281;28;20042;-77
2023/07/08 10:01:56;;;;;;;;;;;;;;;44.28;21.20;101354.44;5113106;28;20130;-78
2023/07/08 10:07:45;;;;;;;12.60;7.63;;;;;;;41.86;21.49;101357.94;5113036;28;20318;-78
2023/07/08 10:13:40;;;;;;;;;;;;;;;39.89;25.62;101351.72;5113279;28;20088;-78
2023/07/08 10:19:27;;;;;;;10.90;8.65;;;;;;;37.95;27.00;101342.38;5112637;28;20084;-78
2023/07/08 10:26:02;;;;;;;10.70;8.18;;;;;;;37.15;28.47;101356.00;5113040;28;20047;-79
2023/07/08 10:32:12;;;;;;;12.32;8.27;;;;;;;37.40;29.63;101356.28;5010500;28;20049;-78
2023/07/08 10:38:20;;;;;;;13.70;8.68;;;;;;;41.53;23.32;101362.25;5112906;28;20555;-77
2023/07/08 10:44:17;;;;;;;13.25;8.07;;;;;;;42.83;21.09;101358.47;5112827;28;20510;-79
2023/07/08 10:50:07;;;;;;;11.57;7.68;;;;;;;43.33;21.04;101363.38;5112501;28;20041;-76
2023/07/08 10:56:03;;;;;;;11.48;8.13;;;;;;;40.75;24.25;101364.31;5112522;28;20613;-76
2023/07/08 11:02:17;;;;;;;13.57;8.23;;;;;;;40.98;23.28;101366.63;5112448;28;20450;-76
2023/07/08 11:08:27;;;;;;;14.40;8.10;;;;;;;38.86;26.45;101348.84;5112871;28;20027;-78
2023/07/08 11:14:33;;;;;;;10.10;8.18;;;;;;;38.41;26.31;101339.84;5112410;28;20070;-77
2023/07/08 11:20:40;;;;;;;11.02;7.40;;;;;;;40.98;22.62;101360.22;5112699;28;20186;-80
2023/07/08 11:26:42;;;;;;;10.20;7.80;;;;;;;40.59;22.01;101357.59;5112165;28;20050;-77
2023/07/08 11:32:32;;;;;;;12.32;7.90;;;;;;;40.46;20.41;101357.25;5112267;28;20050;-78
2023/07/08 11:38:20;;;;;;;11.77;8.05;;;;;;;39.51;21.13;101351.38;5112970;28;20039;-77
2023/07/08 11:44:11;;;;;;;13.03;8.13;;;;;;;38.56;23.12;101343.50;5115587;28;20038;-78
2023/07/08 11:49:58;;;;;;;14.60;7.53;;;;;;;36.80;25.63;101340.50;5116015;28;20047;-80
2023/07/08 11:56:01;;;;;;;10.13;7.93;;;;;;;36.17;27.45;101330.09;5115382;28;20073;-76
2023/07/08 12:02:11;;;;;;;10.53;8.13;;;;;;;37.43;26.33;101322.81;5115124;28;20124;-76
2023/07/08 12:08:03;;;;;;;10.30;7.47;;;;;;;37.48;24.51;101316.88;5115633;28;20085;-74
2023/07/08 12:13:50;;;;;;;11.40;7.70;;;;;;;38.79;23.47;101316.06;5115098;28;20400;-77
2023/07/08 12:19:41;;;;;;;10.20;7.65;;;;;;;38.59;23.85;101317.56;5115014;28;20527;-78
2023/07/08 12:25:32;;;;;;;13.57;8.40;;;;;;;38.02;23.47;101309.69;5115259;28;20043;-77
2023/07/08 12:31:21;;;;;;;14.18;8.80;;;;;;;37.02;26.58;101312.84;5115425;28;20030;-77
2023/07/08 12:37:14;;;;;;;11.98;7.70;;;;;;;36.97;26.66;101288.06;5115262;28;20123;-78
2023/07/08 12:43:01;;;;;;;12.97;7.23;;;;;;;37.28;24.40;101286.78;5114478;28;20276;-78
2023/07/08 12:52:22;;;;;;;10.45;7.47;;;;;;;39.61;22.28;101297.38;5114867;28;20045;-78
2023/07/08 12:58:21;;;;;;;12.10;8.05;;;;;;;40.19;22.93;101282.03;5115460;28;20039;-81
2023/07/08 13:04:11;;;;;;;14.20;7.28;;;;;;;39.93;20.24;101294.50;5114653;28;20425;-74
2023/07/08 13:09:59;;;;;;;15.13;7.78;;;;;;;38.23;24.32;101283.88;5114538;28;20126;-77
2023/07/08 13:19:12;;;;;;;10.70;7.05;;;;;;;37.51;25.75;101287.38;5114416;28;20039;-76
2023/07/08 13:25:02;;;;;;;13.60;7.00;;;;;;;36.72;24.58;101290.56;5114097;28;20556;-77
2023/07/08 13:30:52;;;;;;;11.50;7.43;;;;;;;36.18;25.47;101275.19;5114202;28;20077;-77
2023/07/08 13:36:40;;;;;;;9.05;6.25;;;;;;;35.39;26.75;101276.78;5113894;28;20120;-77
2023/07/08 13:42:27;;;;;;;10.15;6.63;;;;;;;35.10;29.14;101263.53;5113949;28;20088;-75
2023/07/08 13:48:24;;;;;;;11.30;7.03;;;;;;;34.67;30.97;101268.28;5113708;28;20042;-78
2023/07/08 13:57:37;;;;;;;10.82;6.63;;;;;;;34.31;30.99;101269.50;5113567;28;20035;-80
2023/07/08 14:03:24;;;;;;;10.30;6.57;;;;;;;34.11;29.53;101265.09;5113449;28;20073;-82
2023/07/08 14:09:17;;;;;;;9.70;6.25;;;;;;;34.00;29.98;101264.88;5113795;28;20092;-83
2023/07/08 14:15:05;;;;;;;11.95;6.80;;;;;;;34.03;29.17;101274.47;5113145;28;20046;-80
2023/07/08 14:20:53;;;;;;;10.25;6.97;;;;;;;34.34;31.58;101257.69;5113003;28;20050;-79
2023/07/08 14:26:43;;;;;;;10.43;6.70;;;;;;;34.27;30.24;101267.84;5112933;28;20112;-78
2023/07/08 14:32:32;;;;;;;14.05;6.45;;;;;;;34.90;30.03;101268.34;5113118;28;20097;-76
2023/07/08 14:38:19;;;;;;;10.55;6.15;;;;;;;34.73;33.16;101275.16;5112760;28;20062;-74
2023/07/08 14:44:25;;;;;;;9.90;6.63;;;;;;;34.68;30.61;101278.22;5112376;28;20097;-76
2023/07/08 14:50:14;;;;;;;13.05;6.82;;;;;;;34.20;31.00;101287.13;5112025;28;20085;-74
2023/07/08 14:56:12;;;;;;;9.97;7.00;;;;;;;34.12;31.54;101292.53;5112504;28;20566;-81
2023/07/08 15:02:00;;;;;;;11.00;6.57;;;;;;;33.61;32.17;101288.94;5113036;28;20442;-81
2023/07/08 15:07:51;;;;;;;10.33;6.73;;;;;;;34.13;33.59;101285.81;5112946;28;20081;-80
2023/07/08 15:13:43;;;;;;;10.20;6.82;;;;;;;33.97;34.87;101278.69;5111357;28;20054;-75
2023/07/08 15:19:29;;;;;;;13.15;6.88;;;;;;;33.98;35.98;101285.84;5112486;28;20171;-77
2023/07/08 15:25:17;;;;;;;12.83;7.10;;;;;;;33.88;35.31;101287.22;5111943;28;20189;-77
2023/07/08 15:31:04;;;;;;;12.73;6.85;;;;;;;33.79;35.79;101292.91;5112206;28;20592;-75
2023/07/08 15:36:51;;;;;;;9.13;7.30;;;;;;;33.68;38.71;101299.41;5111809;28;20189;-75
2023/07/08 15:42:40;;;;;;;11.02;7.75;;;;;;;33.33;37.87;101291.81;5111766;28;20038;-76
2023/07/08 15:48:27;;;;;;;11.85;7.18;;;;;;;32.94;41.72;101285.19;5111983;28;20073;-73
2023/07/08 15:54:14;;;;;;;13.43;6.88;;;;;;;32.94;37.80;101282.44;5111509;28;20050;-74
2023/07/08 16:00:02;;;;;;;11.75;7.63;;;;;;;32.26;42.29;101299.09;5111810;28;20173;-76
2023/07/08 16:05:51;;;;;;;10.80;7.30;;;;;;;32.33;45.02;101296.50;5111667;28;20123;-74
2023/07/08 16:11:38;;;;;;;11.80;7.03;;;;;;;32.47;43.53;101310.78;5111537;28;20149;-75
2023/07/08 16:17:25;;;;;;;11.70;6.70;;;;;;;32.31;43.55;101321.78;5111699;28;20448;-76
2023/07/08 16:23:12;;;;;;;13.40;7.10;;;;;;;32.16;45.59;101311.41;5111246;28;20264;-75
2023/07/08 16:29:00;;;;;;;10.40;6.30;;;;;;;32.15;44.75;101304.28;5114890;28;20088;-76
2023/07/08 16:34:47;;;;;;;12.60;6.22;;;;;;;32.48;43.48;101298.56;5114822;28;20092;-77
2023/07/08 16:43:59;;;;;;;8.48;5.22;;;;;;;32.30;42.50;101298.03;5114382;28;20066;-75
2023/07/08 16:49:46;;;;;;;9.60;5.20;;;;;;;32.00;46.88;101282.84;5114724;28;20042;-75
2023/07/08 16:55:33;;;;;;;8.35;4.95;;;;;;;31.58;51.15;101283.09;5114203;28;20277;-75
2023/07/08 17:01:22;;;;;;;7.22;5.07;;;;;;;32.03;46.75;101293.22;5114222;28;20575;-74
2023/07/08 17:07:11;;;;;;;7.63;5.00;;;;;;;31.80;45.04;101294.84;5114065;28;20039;-74
2023/07/08 17:12:58;;;;;;;8.32;5.40;;;;;;;31.23;47.88;101292.97;5114135;28;20054;-75
2023/07/08 17:18:51;;;;;;;9.65;4.60;;;;;;;30.84;49.53;101297.88;5113981;28;20042;-74
2023/07/08 17:24:38;;;;;;;6.63;4.13;;;;;;;30.46;54.97;101293.31;5113983;28;20510;-75
2023/07/08 17:30:25;;;;;;;7.57;4.35;;;;;;;31.04;53.28;101285.97;5113650;28;20299;-75
2023/07/08 17:36:12;;;;;;;7.70;4.63;;;;;;;31.35;50.23;101282.72;5112792;28;20280;-75
2023/07/08 17:41:59;;;;;;;12.60;4.70;;;;;;;31.64;50.69;101284.47;5113660;28;20084;-77
2023/07/08 17:47:48;;;;;;;8.85;4.68;;;;;;;31.37;58.96;101283.19;5113412;28;20486;-76
2023/07/08 17:53:35;;;;;;;9.63;4.18;;;;;;;30.80;54.12;101286.72;5113483;28;20087;-74
2023/07/08 17:59:22;;;;;;;10.65;4.82;;;;;;;30.79;62.90;101276.00;5112489;28;20043;-74
2023/07/08 18:05:21;;;;;;;7.40;4.68;;;;;;;30.96;58.73;101288.84;5113134;28;20466;-71
2023/07/08 18:11:12;;;;;;;9.32;5.07;;;;;;;31.14;60.50;101287.47;5113098;28;20041;-71
2023/07/08 18:16:59;;;;;;;8.35;4.80;;;;;;;30.71;67.57;101290.72;5113052;28;20038;-72
2023/07/08 18:22:50;;;;;;;8.30;4.45;;;;;;;30.31;77.01;101298.63;5113051;28;20054;-72
2023/07/08 18:32:01;;;;;;;8.30;4.65;;;;;;;29.64;83.93;101313.31;5112817;28;20051;-71
2023/07/08 18:37:50;;;;;;;10.30;5.18;;;;;;;29.64;84.96;101319.63;5112741;28;20104;-74
2023/07/08 18:43:37;;;;;;;12.40;4.70;;;;;;;29.19;84.92;101333.81;5112818;28;20139;-71
2023/07/08 18:49:25;;;;;;;7.93;4.70;;;;;;;28.55;92.70;101332.91;5112473;28;20330;-70
2023/07/08 18:55:15;;;;;;;8.60;5.22;;;;;;;28.18;92.27;101329.59;5112600;28;20364;-72
2023/07/08 19:01:02;;;;;;;10.05;6.00;;;;;;;27.98;93.95;101333.75;5112589;28;20054;-72
2023/07/08 19:06:49;;;;;;;13.15;5.93;;;;;;;27.88;94.97;101325.00;5112324;28;20265;-71
2023/07/08 19:12:36;;;;;;;11.38;5.40;;;;;;;27.74;94.76;101330.59;5112264;28;20070;-73
2023/07/08 19:18:23;;;;;;;8.68;5.70;;;;;;;27.54;96.48;101322.91;5112207;28;20035;-73
2023/07/08 19:24:13;;;;;;;11.27;6.18;;;;;;;27.21;97.73;101333.38;5112014;28;20096;-72
2023/07/08 19:29:59;;;;;;;11.55;5.93;;;;;;;27.14;100.00;101334.63;5111880;28;20084;-72
2023/07/08 19:35:47;;;;;;;11.20;5.85;;;;;;;26.89;100.00;101331.66;5112194;28;20443;-72
2023/07/08 19:41:36;;;;;;;10.85;6.20;;;;;;;26.65;100.00;101341.03;5111881;28;20051;-72
2023/07/08 19:47:26;;;;;;;9.93;6.70;;;;;;;26.29;100.00;101348.38;5111343;28;20085;-73
2023/07/08 19:53:13;;;;;;;11.70;5.47;;;;;;;25.85;100.00;101347.91;5111677;28;20544;-73
2023/07/08 19:59:01;;;;;;;8.63;6.25;;;;;;;25.70;100.00;101347.38;5112061;28;20054;-74
2023/07/08 20:04:48;;;;;;;10.57;6.40;;;;;;;25.39;100.00;101358.88;5115301;28;20064;-74
2023/07/08 20:10:37;;;;;;;8.85;6.30;;;;;;;25.23;100.00;101357.53;5114868;28;20069;-72
2023/07/08 20:16:26;;;;;;;10.80;6.82;;;;;;;24.94;100.00;101371.38;5115273;28;20081;-72
2023/07/08 20:22:16;;;;;;;9.88;6.35;;;;;;;24.76;100.00;101378.47;5115090;28;20396;-73
2023/07/08 20:31:25;;;;;;;8.50;6.13;;;;;;;24.59;100.00;101397.34;5115240;28;20034;-73
2023/07/08 20:37:13;;;;;;;12.77;6.60;;;;;;;24.45;100.00;101396.41;5114824;28;20051;-72
2023/07/08 20:43:00;;;;;;;12.70;6.57;;;;;;;24.50;100.00;101396.34;5114795;28;20043;-71
2023/07/08 20:48:50;;;;;;;11.77;6.22;;;;;;;24.63;100.00;101403.84;5114277;28;20303;-73
2023/07/08 20:54:38;;;;;;;11.90;6.35;;;;;;;24.63;100.00;101401.94;5114540;28;20513;-73
2023/07/08 21:00:28;;;;;;;13.73;7.15;;;;;;;24.42;100.00;101399.75;5114034;28;20046;-73
2023/07/08 21:09:36;;;;;;;12.52;6.82;;;;;;;24.16;100.00;101397.28;5114114;28;20046;-71
2023/07/08 21:15:30;;;;;;;13.90;6.45;;;;;;;23.92;100.00;101396.47;5113984;28;20433;-71
2023/07/08 21:21:18;;;;;;;12.55;6.97;;;;;;;23.78;100.00;101404.53;5113931;28;20042;-72
2023/07/08 21:27:05;;;;;;;9.63;6.75;;;;;;;23.52;100.00;101401.22;5113906;28;20084;-72
2023/07/08 21:32:54;;;;;;;13.18;7.00;;;;;;;23.44;100.00;101407.31;5113613;28;20042;-72
2023/07/08 21:38:41;;;;;;;10.52;6.63;;;;;;;23.28;100.00;101416.69;5113469;28;20508;-74
2023/07/08 21:44:28;;;;;;;11.05;7.00;;;;;;;23.08;100.00;101412.19;5113357;28;20318;-73
2023/07/08 21:50:15;;;;;;;12.63;7.22;;;;;;;23.03;100.00;101415.78;5113517;28;20045;-73
2023/07/08 21:56:03;;;;;;;10.57;7.50;;;;;;;23.04;100.00;101419.31;5113154;28;20356;-78
2023/07/08 22:01:50;;;;;;;10.32;6.80;;;;;;;23.03;100.00;101415.78;5113869;28;20088;-75
2023/07/08 22:07:37;;;;;;;11.93;7.30;;;;;;;23.10;100.00;101413.53;5113254;28;20046;-76
2023/07/08 22:13:39;;;;;;;13.40;6.90;;;;;;;23.21;100.00;101417.03;5112937;28;20453;-76
2023/07/08 22:19:26;;;;;;;12.88;8.30;;;;;;;23.18;100.00;101426.59;5112750;28;20518;-76
2023/07/08 22:25:39;;;;;;;14.90;8.18;;;;;;;23.11;100.00;101428.81;5112750;28;20418;-75
2023/07/08 22:31:35;;;;;;;10.52;7.30;;;;;;;22.70;100.00;101433.69;5113199;28;20073;-75
2023/07/08 22:37:22;;;;;;;15.52;7.85;;;;;;;22.46;100.00;101440.88;5112730;28;20453;-75
2023/07/08 22:43:27;;;;;;;13.13;8.40;;;;;;;22.48;100.00;101455.84;5112835;28;20155;-76
2023/07/08 22:45:52;;;;;;;;;;;;;;;22.54;100.00;101446.56;5094652;28;20019;-76
2023/07/08 22:51:42;;;;;;;9.63;7.43;;;;;;;22.50;100.00;101450.13;5112416;28;20764;-76
2023/07/08 22:57:29;;;;;;;11.07;8.20;;;;;;;22.43;100.00;101442.25;5112742;28;20566;-75
2023/07/08 23:03:16;;;;;;;11.73;7.53;;;;;;;22.29;100.00;101435.78;5112900;28;20173;-76
2023/07/08 23:09:04;;;;;;;12.73;7.28;;;;;;;22.19;100.00;101452.13;5112636;28;20456;-76
2023/07/08 23:14:51;;;;;;;11.73;7.63;;;;;;;22.05;100.00;101453.81;5112163;28;20084;-75
2023/07/08 23:20:38;;;;;;;9.57;7.18;;;;;;;22.14;100.00;101452.97;5112490;28;20038;-75
2023/07/08 23:26:32;;;;;;;12.02;7.60;;;;;;;22.24;100.00;101446.66;5112237;28;20530;-75
2023/07/08 23:32:21;;;;;;;12.75;8.43;;;;;;;22.31;100.00;101452.66;5112578;28;20053;-75
2023/07/08 23:38:18;;;;;;;11.82;8.38;;;;;;;22.21;100.00;101456.22;5116007;28;20066;-76
2023/07/08 23:44:07;;;;;;;13.68;9.00;;;;;;;22.20;100.00;101434.69;5115765;28;20046;-76
2023/07/08 23:46:33;;;;;;;13.93;9.23;;;;;;;22.16;100.00;101445.34;5114450;28;20047;-76
2023/07/08 23:52:20;;;;;;;14.60;8.82;;;;;;;21.86;100.00;101445.38;5114477;28;20072;-76
2023/07/08 23:58:11;;;;;;;15.85;9.98;;;;;;;21.67;100.00;101439.66;5115304;28;20038;-76
